Time;durP1;ratioP1;P1;durP2;ratioP2;P2;SDS_P1;SDS_P2;PMS_P1;PMS_P2;Temp;Humidity;BMP_temperature;BMP_pressure;BME280_temperature;BME280_humidity;BME280_pressure;Samples;Min_cycle;Max_cycle;Signal;HPM_P1;HPM_P2
2022/03/25 00:01:08;;;;;;;;;;;2.80;88.90;;;;;;5044861;28;19955;-71
2022/03/25 00:03:33;;;;;;;;;;;3.00;88.20;;;;;;5044649;28;19910;-71
2022/03/25 00:05:59;;;;;;;;;;;2.80;89.30;;;;;;5033828;28;19909;-73
2022/03/25 00:08:26;;;;;;;;;;;2.60;89.30;;;;;;5052449;28;19916;-71
2022/03/25 00:10:51;;;;;;;;;;;2.40;90.00;;;;;;5052875;28;19962;-71
2022/03/25 00:13:17;;;;;;;;;;;2.30;90.20;;;;;;5052557;28;19909;-72
2022/03/25 00:15:43;;;;;;;;;;;2.40;90.50;;;;;;5052617;28;20015;-73
2022/03/25 00:18:08;;;;;;;;;;;2.30;90.60;;;;;;5052966;28;20008;-71
2022/03/25 00:20:34;;;;;;;;;;;2.40;90.80;;;;;;5052711;28;20325;-72
2022/03/25 00:22:59;;;;;;;;;;;2.50;90.60;;;;;;5037185;28;19916;-71
2022/03/25 00:25:25;;;;;;;;;;;2.60;90.30;;;;;;5032256;28;19909;-71
2022/03/25 00:27:50;;;;;;;;;;;2.70;90.00;;;;;;5033407;28;19966;-71
2022/03/25 00:30:16;;;;;;;;;;;2.60;90.20;;;;;;5033541;28;20256;-72
2022/03/25 00:32:42;;;;;;;;;;;2.50;90.40;;;;;;5033403;28;19951;-73
2022/03/25 00:35:08;;;;;;;;;;;2.50;90.60;;;;;;5033514;28;20393;-72
2022/03/25 00:37:33;;;;;;;;;;;2.40;90.70;;;;;;5044645;28;19925;-73
2022/03/25 00:39:59;;;;;;;;;;;2.50;90.60;;;;;;5033297;28;20392;-72
2022/03/25 00:42:25;;;;;;;;;;;2.50;90.60;;;;;;5033257;28;19999;-71
2022/03/25 00:44:50;;;;;;;;;;;2.50;90.40;;;;;;5033107;28;20254;-72
2022/03/25 00:47:16;;;;;;;;;;;2.50;90.50;;;;;;5033292;28;19948;-72
2022/03/25 00:49:42;;;;;;;;;;;2.40;90.50;;;;;;5033166;28;19915;-73
2022/03/25 00:52:08;;;;;;;;;;;2.30;91.00;;;;;;5048112;28;19983;-72
2022/03/25 00:54:34;;;;;;;;;;;2.30;91.00;;;;;;5034810;28;19915;-72
2022/03/25 00:56:59;;;;;;;;;;;2.50;91.10;;;;;;5035673;28;19912;-71
2022/03/25 00:59:25;;;;;;;;;;;2.70;90.50;;;;;;5035327;28;19910;-72
2022/03/25 01:01:50;;;;;;;;;;;2.90;90.10;;;;;;5038558;28;20285;-72
2022/03/25 01:04:16;;;;;;;;;;;3.00;89.80;;;;;;5032520;28;19910;-72
2022/03/25 01:06:43;;;;;;;;;;;3.20;88.90;;;;;;5032740;28;19909;-72
2022/03/25 01:09:08;;;;;;;;;;;3.00;89.50;;;;;;5032661;28;19941;-72
2022/03/25 01:11:35;;;;;;;;;;;2.90;89.80;;;;;;5032499;28;19963;-72
2022/03/25 01:14:01;;;;;;;;;;;2.90;90.00;;;;;;5045436;28;20339;-72
2022/03/25 01:16:27;;;;;;;;;;;2.90;90.20;;;;;;5051395;28;19917;-72
2022/03/25 01:18:52;;;;;;;;;;;2.90;90.20;;;;;;5050747;28;20285;-72
2022/03/25 01:21:18;;;;;;;;;;;2.80;90.10;;;;;;5039975;28;19916;-72
2022/03/25 01:23:44;;;;;;;;;;;2.90;90.00;;;;;;5045306;28;19910;-71
2022/03/25 01:26:10;;;;;;;;;;;2.90;89.80;;;;;;5032566;28;19909;-72
2022/03/25 01:28:35;;;;;;;;;;;2.50;90.30;;;;;;5031719;28;19917;-72
2022/03/25 01:31:01;;;;;;;;;;;2.30;91.10;;;;;;5031673;28;19963;-73
2022/03/25 01:33:28;;;;;;;;;;;2.20;91.30;;;;;;5031015;28;19941;-73
2022/03/25 01:35:54;;;;;;;;;;;2.30;91.40;;;;;;5030106;28;19916;-72
2022/03/25 01:38:20;;;;;;;;;;;2.60;90.50;;;;;;5031515;28;20366;-72
2022/03/25 01:40:45;;;;;;;;;;;2.80;90.00;;;;;;5031407;28;19909;-72
2022/03/25 01:43:11;;;;;;;;;;;2.90;89.80;;;;;;5031218;28;19916;-73
2022/03/25 01:45:38;;;;;;;;;;;2.90;89.50;;;;;;5031463;28;19917;-72
2022/03/25 01:48:07;;;;;;;;;;;2.80;89.50;;;;;;5031241;28;19909;-72
2022/03/25 01:50:32;;;;;;;;;;;2.50;90.60;;;;;;5035710;28;19913;-72
2022/03/25 01:52:58;;;;;;;;;;;2.30;91.00;;;;;;5041321;28;19910;-72
2022/03/25 01:55:26;;;;;;;;;;;2.70;90.30;;;;;;5030175;28;19931;-72
2022/03/25 01:57:55;;;;;;;;;;;2.40;90.70;;;;;;5034128;28;19916;-72
2022/03/25 02:00:20;;;;;;;;;;;2.40;90.90;;;;;;5043872;28;19909;-72
2022/03/25 02:02:46;;;;;;;;;;;2.20;91.50;;;;;;5034473;28;20337;-72
2022/03/25 02:05:12;;;;;;;;;;;2.00;91.70;;;;;;5048853;28;19909;-72
2022/03/25 02:07:37;;;;;;;;;;;1.90;92.10;;;;;;5050276;28;20297;-72
2022/03/25 02:10:05;;;;;;;;;;;2.20;91.50;;;;;;5050026;28;20273;-71
2022/03/25 02:12:31;;;;;;;;;;;2.30;91.30;;;;;;5049920;28;19917;-72
2022/03/25 02:14:57;;;;;;;;;;;2.20;91.50;;;;;;5049818;28;19913;-72
2022/03/25 02:17:23;;;;;;;;;;;2.10;91.70;;;;;;4972218;28;1810841;-72
2022/03/25 02:19:49;;;;;;;;;;;2.00;92.00;;;;;;5031601;28;19949;-73
2022/03/25 02:22:14;;;;;;;;;;;1.80;92.30;;;;;;5041760;28;19909;-73
2022/03/25 02:24:39;;;;;;;;;;;1.60;92.90;;;;;;5037598;28;19909;-72
2022/03/25 02:27:06;;;;;;;;;;;1.40;93.40;;;;;;5031800;28;20366;-72
2022/03/25 02:29:33;;;;;;;;;;;1.40;93.50;;;;;;5031678;28;20008;-72
2022/03/25 02:31:58;;;;;;;;;;;1.30;93.60;;;;;;5043415;28;19909;-72
2022/03/25 02:34:24;;;;;;;;;;;1.00;94.80;;;;;;5031830;28;19932;-72
2022/03/25 02:36:49;;;;;;;;;;;1.00;95.30;;;;;;5031781;28;19920;-72
2022/03/25 02:39:16;;;;;;;;;;;1.10;94.90;;;;;;5030228;28;19913;-72
2022/03/25 02:41:41;;;;;;;;;;;1.10;94.80;;;;;;5031613;28;19992;-72
2022/03/25 02:44:07;;;;;;;;;;;1.00;95.00;;;;;;5036175;28;20427;-72
2022/03/25 02:46:33;;;;;;;;;;;1.00;95.30;;;;;;5038007;28;20035;-72
2022/03/25 02:48:58;;;;;;;;;;;0.90;95.40;;;;;;5031677;28;19951;-73
2022/03/25 02:51:24;;;;;;;;;;;0.90;95.80;;;;;;5031591;28;19915;-72
2022/03/25 02:53:49;;;;;;;;;;;0.90;96.10;;;;;;5031459;28;19916;-72
2022/03/25 02:56:17;;;;;;;;;;;1.20;95.70;;;;;;5031733;28;19975;-73
2022/03/25 02:58:43;;;;;;;;;;;1.10;95.50;;;;;;5033303;28;19955;-73
2022/03/25 03:01:08;;;;;;;;;;;0.60;96.50;;;;;;5030038;28;20282;-72
2022/03/25 03:03:34;;;;;;;;;;;0.50;97.20;;;;;;5029887;28;19909;-72
2022/03/25 03:06:00;;;;;;;;;;;0.50;97.80;;;;;;5031429;28;20004;-72
2022/03/25 03:08:25;;;;;;;;;;;0.50;97.70;;;;;;5031410;28;19909;-73
2022/03/25 03:10:51;;;;;;;;;;;0.40;98.20;;;;;;5031176;28;19913;-72
2022/03/25 03:13:17;;;;;;;;;;;0.40;98.70;;;;;;5037246;28;19963;-72
2022/03/25 03:15:42;;;;;;;;;;;0.30;99.40;;;;;;5038491;28;19917;-72
2022/03/25 03:18:08;;;;;;;;;;;0.50;99.90;;;;;;5040120;28;19952;-72
2022/03/25 03:20:33;;;;;;;;;;;0.60;99.30;;;;;;5044960;28;19916;-72
2022/03/25 03:22:59;;;;;;;;;;;0.60;99.20;;;;;;5034581;28;19909;-72
2022/03/25 03:25:26;;;;;;;;;;;0.70;99.00;;;;;;5034436;28;19909;-72
2022/03/25 03:27:52;;;;;;;;;;;0.80;98.50;;;;;;5034800;28;20019;-72
2022/03/25 03:30:17;;;;;;;;;;;1.00;97.70;;;;;;5034486;28;20472;-72
2022/03/25 03:32:43;;;;;;;;;;;0.90;97.20;;;;;;5034534;28;19922;-72
2022/03/25 03:35:09;;;;;;;;;;;0.50;99.00;;;;;;5037215;28;20004;-72
2022/03/25 03:37:44;;;;;;;;;;;0.30;99.60;;;;;;5038965;28;20278;-72
2022/03/25 03:40:11;;;;;;;;;;;0.30;99.90;;;;;;5038720;28;20379;-73
2022/03/25 03:42:37;;;;;;;;;;;0.30;99.90;;;;;;5035415;28;19932;-72
2022/03/25 03:45:03;;;;;;;;;;;0.30;99.90;;;;;;5032837;28;19913;-72
2022/03/25 03:47:28;;;;;;;;;;;0.50;99.80;;;;;;5034222;28;19990;-72
2022/03/25 03:49:53;;;;;;;;;;;0.70;99.10;;;;;;5034314;28;19909;-72
2022/03/25 03:52:19;;;;;;;;;;;0.40;99.20;;;;;;5032982;28;19960;-72
2022/03/25 03:54:45;;;;;;;;;;;0.40;99.60;;;;;;5034059;28;19963;-72
2022/03/25 03:57:10;;;;;;;;;;;0.60;99.60;;;;;;5033937;28;19929;-72
2022/03/25 03:59:36;;;;;;;;;;;0.60;99.20;;;;;;5034051;28;19909;-72
2022/03/25 04:02:03;;;;;;;;;;;0.50;99.60;;;;;;5033957;28;19909;-72
2022/03/25 04:04:28;;;;;;;;;;;0.20;99.90;;;;;;5034746;28;19912;-72
2022/03/25 04:06:54;;;;;;;;;;;-0.10;99.90;;;;;;5056743;28;19909;-72
2022/03/25 04:09:20;;;;;;;;;;;-0.10;99.90;;;;;;5033738;28;19909;-72
2022/03/25 04:11:45;;;;;;;;;;;-0.10;99.90;;;;;;5033788;28;19909;-72
2022/03/25 04:14:11;;;;;;;;;;;0.10;99.90;;;;;;5033665;28;19962;-72
2022/03/25 04:16:37;;;;;;;;;;;0.30;99.90;;;;;;5033436;28;19917;-72
2022/03/25 04:19:03;;;;;;;;;;;0.30;99.90;;;;;;5038659;28;19909;-72
2022/03/25 04:21:28;;;;;;;;;;;0.40;99.90;;;;;;5033176;28;19929;-72
2022/03/25 04:23:54;;;;;;;;;;;0.20;99.90;;;;;;5051833;28;19915;-72
2022/03/25 04:26:19;;;;;;;;;;;0.20;99.90;;;;;;5052443;28;19908;-72
2022/03/25 04:28:45;;;;;;;;;;;0.20;99.90;;;;;;5051706;28;19962;-72
2022/03/25 04:31:10;;;;;;;;;;;0.30;99.90;;;;;;5052404;28;19912;-72
2022/03/25 04:33:37;;;;;;;;;;;0.50;99.90;;;;;;5052173;28;20278;-72
2022/03/25 04:36:02;;;;;;;;;;;0.40;99.90;;;;;;5038916;28;19916;-72
2022/03/25 04:38:28;;;;;;;;;;;0.40;99.90;;;;;;5042413;28;19909;-72
2022/03/25 04:40:54;;;;;;;;;;;0.20;99.90;;;;;;5033670;28;19916;-73
2022/03/25 04:43:19;;;;;;;;;;;0.30;99.90;;;;;;5032869;28;19975;-71
2022/03/25 04:45:45;;;;;;;;;;;0.60;99.90;;;;;;5032964;28;20321;-71
2022/03/25 04:48:11;;;;;;;;;;;0.40;99.90;;;;;;5033047;28;19949;-72
2022/03/25 04:50:39;;;;;;;;;;;0.20;99.90;;;;;;5035638;28;19908;-72
2022/03/25 04:53:05;;;;;;;;;;;0.00;99.90;;;;;;5043505;28;20282;-72
2022/03/25 04:55:31;;;;;;;;;;;-0.10;99.90;;;;;;5033053;28;19913;-73
2022/03/25 04:57:56;;;;;;;;;;;-0.20;99.90;;;;;;5041986;28;19917;-72
2022/03/25 05:00:22;;;;;;;;;;;-0.10;99.90;;;;;;5033083;28;19992;-72
2022/03/25 05:02:48;;;;;;;;;;;-0.10;99.90;;;;;;5032911;28;19948;-72
2022/03/25 05:05:13;;;;;;;;;;;-0.20;99.90;;;;;;5032881;28;19955;-72
2022/03/25 05:07:42;;;;;;;;;;;-0.40;99.90;;;;;;5032729;28;19909;-72
2022/03/25 05:10:08;;;;;;;;;;;-0.40;99.90;;;;;;5032627;28;19909;-72
2022/03/25 05:12:34;;;;;;;;;;;-0.10;99.90;;;;;;5032478;28;19940;-72
2022/03/25 05:14:59;;;;;;;;;;;0.20;99.90;;;;;;5032553;28;20392;-73
2022/03/25 05:17:26;;;;;;;;;;;-0.10;99.90;;;;;;5033658;28;20370;-72
2022/03/25 05:19:51;;;;;;;;;;;-0.40;99.90;;;;;;5042900;28;19919;-73
2022/03/25 05:22:16;;;;;;;;;;;-0.30;99.90;;;;;;5032430;28;19909;-73
2022/03/25 05:24:42;;;;;;;;;;;-0.10;99.90;;;;;;5032143;28;19910;-73
2022/03/25 05:27:07;;;;;;;;;;;-0.10;99.90;;;;;;5032567;28;19962;-73
2022/03/25 05:29:33;;;;;;;;;;;-0.10;99.90;;;;;;5032483;28;20050;-73
2022/03/25 05:31:58;;;;;;;;;;;0.00;99.90;;;;;;5032086;28;19909;-73
2022/03/25 05:34:24;;;;;;;;;;;-0.10;99.90;;;;;;5032030;28;19910;-73
2022/03/25 05:36:49;;;;;;;;;;;-0.20;99.90;;;;;;5032076;28;20359;-73
2022/03/25 05:39:15;;;;;;;;;;;-0.30;99.90;;;;;;5031968;28;19919;-73
2022/03/25 05:41:41;;;;;;;;;;;-0.30;99.90;;;;;;5032473;28;20381;-72
2022/03/25 05:44:06;;;;;;;;;;;-0.30;99.90;;;;;;5031963;28;19916;-72
2022/03/25 05:46:34;;;;;;;;;;;-0.30;99.90;;;;;;5030791;28;19920;-73
2022/03/25 05:48:59;;;;;;;;;;;0.10;99.90;;;;;;5041078;28;19916;-73
2022/03/25 05:51:24;;;;;;;;;;;0.30;99.90;;;;;;5040302;28;19909;-72
2022/03/25 05:53:50;;;;;;;;;;;0.50;99.90;;;;;;5031365;28;20380;-72
2022/03/25 05:56:15;;;;;;;;;;;0.80;99.90;;;;;;5031691;28;19917;-73
2022/03/25 05:58:41;;;;;;;;;;;0.90;99.90;;;;;;5031785;28;20294;-72
2022/03/25 06:01:10;;;;;;;;;;;1.00;99.90;;;;;;5031690;28;19967;-73
2022/03/25 06:03:35;;;;;;;;;;;0.80;99.90;;;;;;5031497;28;19909;-73
2022/03/25 06:06:03;;;;;;;;;;;0.90;99.90;;;;;;5031887;28;19913;-73
2022/03/25 06:08:29;;;;;;;;;;;0.80;99.90;;;;;;5030475;28;19909;-73
2022/03/25 06:10:55;;;;;;;;;;;0.70;99.90;;;;;;5032313;28;20012;-73
2022/03/25 06:13:21;;;;;;;;;;;0.80;99.90;;;;;;5031319;28;19920;-73
2022/03/25 06:15:47;;;;;;;;;;;0.70;99.90;;;;;;5031603;28;19920;-73
2022/03/25 06:18:13;;;;;;;;;;;0.70;99.90;;;;;;5044973;28;19909;-73
2022/03/25 06:20:39;;;;;;;;;;;0.70;99.90;;;;;;5032870;28;19909;-73
2022/03/25 06:23:05;;;;;;;;;;;0.80;99.90;;;;;;5031261;28;19909;-74
2022/03/25 06:25:30;;;;;;;;;;;0.80;99.90;;;;;;5031678;28;19913;-73
2022/03/25 06:27:57;;;;;;;;;;;0.90;99.90;;;;;;5031692;28;19920;-73
2022/03/25 06:30:24;;;;;;;;;;;1.00;99.90;;;;;;5031569;28;19909;-73
2022/03/25 06:32:50;;;;;;;;;;;1.30;99.90;;;;;;5031813;28;19916;-73
2022/03/25 06:35:16;;;;;;;;;;;1.50;99.90;;;;;;5044144;28;19909;-74
2022/03/25 06:37:42;;;;;;;;;;;1.60;99.90;;;;;;5038605;28;19913;-74
2022/03/25 06:40:08;;;;;;;;;;;1.70;99.90;;;;;;5031741;28;19962;-73
2022/03/25 06:42:39;;;;;;;;;;;1.90;99.90;;;;;;5031455;28;19916;-73
2022/03/25 06:45:05;;;;;;;;;;;1.90;99.90;;;;;;5031210;28;19909;-73
2022/03/25 06:47:31;;;;;;;;;;;2.00;99.90;;;;;;5031637;28;19920;-74
2022/03/25 06:49:57;;;;;;;;;;;2.30;99.90;;;;;;5031589;28;20296;-74
2022/03/25 06:52:23;;;;;;;;;;;2.50;99.90;;;;;;5033271;28;19920;-74
2022/03/25 06:54:48;;;;;;;;;;;2.60;99.90;;;;;;5035457;28;19992;-73
2022/03/25 06:57:14;;;;;;;;;;;2.80;99.90;;;;;;5039919;28;20373;-73
2022/03/25 06:59:41;;;;;;;;;;;3.00;99.40;;;;;;5041916;28;20013;-73
2022/03/25 07:02:10;;;;;;;;;;;3.10;99.20;;;;;;5055874;28;19932;-73
2022/03/25 07:04:37;;;;;;;;;;;3.30;98.10;;;;;;5040298;28;19963;-73
2022/03/25 07:07:03;;;;;;;;;;;3.60;97.00;;;;;;5047521;28;20349;-73
2022/03/25 07:09:29;;;;;;;;;;;3.70;96.50;;;;;;5035659;28;20342;-73
2022/03/25 07:11:55;;;;;;;;;;;3.90;96.10;;;;;;5047389;28;19909;-74
2022/03/25 07:14:21;;;;;;;;;;;4.10;96.00;;;;;;5034512;28;20008;-73
2022/03/25 07:16:46;;;;;;;;;;;4.20;96.00;;;;;;5034461;28;19939;-70
2022/03/25 07:19:12;;;;;;;;;;;4.30;96.30;;;;;;5041517;28;20340;-69
2022/03/25 07:21:38;;;;;;;;;;;4.40;96.40;;;;;;5042988;28;20384;-70
2022/03/25 07:24:03;;;;;;;;;;;4.60;95.80;;;;;;5047820;28;19955;-72
2022/03/25 07:26:29;;;;;;;;;;;4.80;95.20;;;;;;5034842;28;19913;-69
2022/03/25 07:28:54;;;;;;;;;;;5.00;95.50;;;;;;5043207;28;19912;-70
2022/03/25 07:31:20;;;;;;;;;;;5.00;95.20;;;;;;5039040;28;19920;-70
2022/03/25 07:33:45;;;;;;;;;;;5.10;95.20;;;;;;5041890;28;19917;-69
2022/03/25 07:36:11;;;;;;;;;;;5.60;93.70;;;;;;5037994;28;20040;-70
2022/03/25 07:38:37;;;;;;;;;;;5.80;93.00;;;;;;5034653;28;20310;-70
2022/03/25 07:41:03;;;;;;;;;;;6.10;92.90;;;;;;5034048;28;19983;-71
2022/03/25 07:43:30;;;;;;;;;;;6.60;92.00;;;;;;5033959;28;19916;-71
2022/03/25 07:45:56;;;;;;;;;;;7.20;91.40;;;;;;5034352;28;19909;-70
2022/03/25 07:48:21;;;;;;;;;;;7.40;90.70;;;;;;5034422;28;20376;-71
2022/03/25 07:50:47;;;;;;;;;;;7.70;89.10;;;;;;5034581;28;19963;-70
2022/03/25 07:53:12;;;;;;;;;;;7.90;89.70;;;;;;5034549;28;19941;-72
2022/03/25 07:55:38;;;;;;;;;;;8.60;89.70;;;;;;5034330;28;19955;-71
2022/03/25 07:58:03;;;;;;;;;;;10.70;78.90;;;;;;5034489;28;19939;-69
2022/03/25 08:00:29;;;;;;;;;;;12.40;72.40;;;;;;5033522;28;19941;-70
2022/03/25 08:02:55;;;;;;;;;;;13.60;66.80;;;;;;5035092;28;19920;-72
2022/03/25 08:05:21;;;;;;;;;;;14.20;65.00;;;;;;5045723;28;19908;-74
2022/03/25 08:07:48;;;;;;;;;;;14.70;60.70;;;;;;5038317;28;19956;-69
2022/03/25 08:10:40;;;;;;;;;;;15.50;59.40;;;;;;5034035;28;19916;-68
2022/03/25 08:13:06;;;;;;;;;;;15.60;58.00;;;;;;5034797;28;20259;-69
2022/03/25 08:15:33;;;;;;;;;;;16.40;56.40;;;;;;5036619;28;19920;-69
2022/03/25 08:18:00;;;;;;;;;;;16.50;55.20;;;;;;5043756;28;19912;-69
2022/03/25 08:20:40;;;;;;;;;;;17.20;54.50;;;;;;5049627;28;19985;-69
2022/03/25 08:23:06;;;;;;;;;;;17.00;52.90;;;;;;5046938;28;20021;-70
2022/03/25 08:28:17;;;;;;;;;;;17.90;49.60;;;;;;5035769;28;19924;-69
2022/03/25 08:30:43;;;;;;;;;;;17.60;52.00;;;;;;5041193;28;19909;-70
2022/03/25 08:33:09;;;;;;;;;;;17.40;50.90;;;;;;5037737;28;20393;-69
2022/03/25 08:35:35;;;;;;;;;;;17.60;50.60;;;;;;5033873;28;19909;-69
2022/03/25 08:38:01;;;;;;;;;;;17.60;50.10;;;;;;5034086;28;19913;-69
2022/03/25 08:40:27;;;;;;;;;;;17.60;48.10;;;;;;5033338;28;19916;-69
2022/03/25 08:42:53;;;;;;;;;;;18.10;47.80;;;;;;5033728;28;20505;-71
2022/03/25 08:45:19;;;;;;;;;;;18.20;48.20;;;;;;5033368;28;20106;-70
2022/03/25 08:47:45;;;;;;;;;;;17.90;50.00;;;;;;5034429;28;19909;-70
2022/03/25 08:50:12;;;;;;;;;;;18.70;48.10;;;;;;5051415;28;19916;-70
2022/03/25 08:52:42;;;;;;;;;;;19.60;46.30;;;;;;5036690;28;19984;-71
2022/03/25 08:55:09;;;;;;;;;;;20.00;46.70;;;;;;5032629;28;19913;-71
2022/03/25 08:57:34;;;;;;;;;;;20.80;45.60;;;;;;5033531;28;20431;-71
2022/03/25 09:00:01;;;;;;;;;;;21.30;43.90;;;;;;5033235;28;19909;-71
2022/03/25 09:02:26;;;;;;;;;;;21.00;42.80;;;;;;5034551;28;19909;-71
2022/03/25 09:04:51;;;;;;;;;;;21.20;43.50;;;;;;5043227;28;20278;-71
2022/03/25 09:07:17;;;;;;;;;;;21.60;42.20;;;;;;5032666;28;19919;-71
2022/03/25 09:09:42;;;;;;;;;;;21.60;40.60;;;;;;5031936;28;19916;-70
2022/03/25 09:12:08;;;;;;;;;;;21.10;43.90;;;;;;5031816;28;19962;-71
2022/03/25 09:14:34;;;;;;;;;;;21.80;42.10;;;;;;5031384;28;19909;-72
2022/03/25 09:17:00;;;;;;;;;;;22.30;43.10;;;;;;5030751;28;19917;-69
2022/03/25 09:19:26;;;;;;;;;;;22.40;39.10;;;;;;5044881;28;19916;-69
2022/03/25 09:21:52;;;;;;;;;;;22.50;40.40;;;;;;5038386;28;20358;-69
2022/03/25 09:24:17;;;;;;;;;;;22.60;41.60;;;;;;5031877;28;19909;-69
2022/03/25 09:26:42;;;;;;;;;;;22.60;40.20;;;;;;5032042;28;20007;-70
2022/03/25 09:29:08;;;;;;;;;;;23.20;41.60;;;;;;5034975;28;20278;-70
2022/03/25 09:31:34;;;;;;;;;;;23.30;39.30;;;;;;5052569;28;19916;-70
2022/03/25 09:37:03;;;;;;;;;;;23.10;41.30;;;;;;5049012;28;19917;-71
2022/03/25 09:39:29;;;;;;;;;;;23.60;40.30;;;;;;5048923;28;19909;-71
2022/03/25 09:41:54;;;;;;;;;;;23.20;40.50;;;;;;5049608;28;19992;-71
2022/03/25 09:44:21;;;;;;;;;;;23.90;38.80;;;;;;5051316;28;19909;-70
2022/03/25 09:46:49;;;;;;;;;;;24.70;39.60;;;;;;5050819;28;19982;-70
2022/03/25 09:49:15;;;;;;;;;;;24.90;39.00;;;;;;5042761;28;20140;-70
2022/03/25 09:51:41;;;;;;;;;;;24.30;37.90;;;;;;5034696;28;19916;-70
2022/03/25 09:54:06;;;;;;;;;;;24.90;39.10;;;;;;5031706;28;19909;-71
2022/03/25 09:56:32;;;;;;;;;;;25.70;38.20;;;;;;5031742;28;19971;-70
2022/03/25 09:58:58;;;;;;;;;;;25.90;38.60;;;;;;5037176;28;20011;-71
2022/03/25 10:01:23;;;;;;;;;;;26.40;36.30;;;;;;5036659;28;19910;-71
2022/03/25 10:03:49;;;;;;;;;;;26.50;33.70;;;;;;5031659;28;19909;-71
2022/03/25 10:06:15;;;;;;;;;;;26.10;35.70;;;;;;5031979;28;19909;-72
2022/03/25 10:08:42;;;;;;;;;;;24.80;38.20;;;;;;5031885;28;19992;-71
2022/03/25 10:11:23;;;;;;;;;;;24.90;36.40;;;;;;5031807;28;19916;-72
2022/03/25 10:13:50;;;;;;;;;;;25.60;37.30;;;;;;5031683;28;19909;-73
2022/03/25 10:16:31;;;;;;;;;;;26.40;34.50;;;;;;5032972;28;20259;-72
2022/03/25 10:18:57;;;;;;;;;;;26.50;35.00;;;;;;5033664;28;19955;-71
2022/03/25 10:21:23;;;;;;;;;;;26.40;35.00;;;;;;5041411;28;19914;-71
2022/03/25 10:23:48;;;;;;;;;;;26.70;35.60;;;;;;5031607;28;20286;-71
2022/03/25 10:26:14;;;;;;;;;;;26.00;36.80;;;;;;5040166;28;20381;-71
2022/03/25 10:28:44;;;;;;;;;;;26.40;32.80;;;;;;5042185;28;19909;-70
2022/03/25 10:31:14;;;;;;;;;;;27.20;35.00;;;;;;5049503;28;20394;-71
2022/03/25 10:33:46;;;;;;;;;;;26.80;30.00;;;;;;5037136;28;19909;-71
2022/03/25 10:36:14;;;;;;;;;;;26.70;31.80;;;;;;5042631;28;20109;-71
2022/03/25 10:38:43;;;;;;;;;;;25.40;30.60;;;;;;5041700;28;20336;-71
2022/03/25 10:41:09;;;;;;;;;;;26.10;34.60;;;;;;5037225;28;19909;-71
2022/03/25 10:43:34;;;;;;;;;;;27.20;29.90;;;;;;5035104;28;20368;-70
2022/03/25 10:46:00;;;;;;;;;;;27.30;29.60;;;;;;5035499;28;20388;-71
2022/03/25 10:48:25;;;;;;;;;;;27.20;30.90;;;;;;5042436;28;19915;-71
2022/03/25 10:50:53;;;;;;;;;;;27.30;30.40;;;;;;5036525;28;19917;-71
2022/03/25 10:53:21;;;;;;;;;;;28.10;28.70;;;;;;5034908;28;19909;-72
2022/03/25 10:55:54;;;;;;;;;;;28.40;28.80;;;;;;5035029;28;19909;-71
2022/03/25 10:58:19;;;;;;;;;;;27.70;29.00;;;;;;5034753;28;19909;-71
2022/03/25 11:00:45;;;;;;;;;;;27.00;29.70;;;;;;5043093;28;20008;-71
2022/03/25 11:03:12;;;;;;;;;;;26.90;29.90;;;;;;5041666;28;19913;-72
2022/03/25 11:05:39;;;;;;;;;;;26.00;30.10;;;;;;5042047;28;20286;-71
2022/03/25 11:08:05;;;;;;;;;;;25.70;28.90;;;;;;5035241;28;19918;-70
2022/03/25 11:10:32;;;;;;;;;;;26.00;32.00;;;;;;5034896;28;19913;-71
2022/03/25 11:12:58;;;;;;;;;;;26.40;28.40;;;;;;5034804;28;20354;-71
2022/03/25 11:15:23;;;;;;;;;;;27.50;31.20;;;;;;5040643;28;19909;-72
2022/03/25 11:17:49;;;;;;;;;;;26.80;29.00;;;;;;5039008;28;19924;-72
2022/03/25 11:20:15;;;;;;;;;;;27.70;29.00;;;;;;5034872;28;20739;-72
2022/03/25 11:23:00;;;;;;;;;;;28.80;28.90;;;;;;5038865;28;19924;-72
2022/03/25 11:25:27;;;;;;;;;;;27.70;27.70;;;;;;5043928;28;20331;-72
2022/03/25 11:27:56;;;;;;;;;;;26.20;27.20;;;;;;5036187;28;20305;-72
2022/03/25 11:30:22;;;;;;;;;;;26.40;32.00;;;;;;5040197;28;19944;-71
2022/03/25 11:32:56;;;;;;;;;;;26.40;28.00;;;;;;5040702;28;20010;-71
2022/03/25 11:35:22;;;;;;;;;;;26.60;28.00;;;;;;5040508;28;19948;-72
2022/03/25 11:37:47;;;;;;;;;;;27.90;28.90;;;;;;5039122;28;20011;-71
2022/03/25 11:40:18;;;;;;;;;;;28.50;28.30;;;;;;5035222;28;19910;-72
2022/03/25 11:42:44;;;;;;;;;;;28.70;28.20;;;;;;5035009;28;20049;-71
2022/03/25 11:45:22;;;;;;;;;;;27.00;28.50;;;;;;5034571;28;20322;-72
2022/03/25 11:47:59;;;;;;;;;;;27.70;28.70;;;;;;5047983;28;19909;-73
2022/03/25 11:50:25;;;;;;;;;;;25.80;28.00;;;;;;5052295;28;19951;-72
2022/03/25 11:52:50;;;;;;;;;;;26.60;29.50;;;;;;5043057;28;20368;-73
2022/03/25 11:55:16;;;;;;;;;;;27.80;28.20;;;;;;5034494;28;19909;-72
2022/03/25 11:57:44;;;;;;;;;;;27.00;27.80;;;;;;5034294;28;20348;-73
2022/03/25 12:00:20;;;;;;;;;;;24.60;29.60;;;;;;5041356;28;19916;-72
2022/03/25 12:02:58;;;;;;;;;;;25.50;29.00;;;;;;5050348;28;20432;-71
2022/03/25 12:05:24;;;;;;;;;;;26.00;30.00;;;;;;5052606;28;19915;-73
2022/03/25 12:08:08;;;;;;;;;;;23.20;29.00;;;;;;5053267;28;19951;-72
2022/03/25 12:10:43;;;;;;;;;;;19.40;33.80;;;;;;5053297;28;19915;-72
2022/03/25 12:13:09;;;;;;;;;;;18.80;38.10;;;;;;5052663;28;19909;-72
2022/03/25 12:15:45;;;;;;;;;;;19.20;37.80;;;;;;5044191;28;19909;-71
2022/03/25 12:18:29;;;;;;;;;;;18.70;36.60;;;;;;5034111;28;19920;-73
2022/03/25 12:20:54;;;;;;;;;;;18.60;37.90;;;;;;5033560;28;19963;-71
2022/03/25 12:23:20;;;;;;;;;;;18.20;36.50;;;;;;5047949;28;19909;-71
2022/03/25 12:25:45;;;;;;;;;;;17.70;39.20;;;;;;5036275;28;20286;-71
2022/03/25 12:28:11;;;;;;;;;;;17.80;39.80;;;;;;5032788;28;20259;-70
2022/03/25 12:30:36;;;;;;;;;;;18.00;38.00;;;;;;5038050;28;19913;-72
2022/03/25 12:33:06;;;;;;;;;;;17.60;37.80;;;;;;5043995;28;20389;-72
2022/03/25 12:35:33;;;;;;;;;;;17.40;37.00;;;;;;5033123;28;19920;-72
2022/03/25 12:38:07;;;;;;;;;;;17.80;38.70;;;;;;5040763;28;19934;-72
2022/03/25 12:40:34;;;;;;;;;;;17.70;39.20;;;;;;5033804;28;20373;-72
2022/03/25 12:43:08;;;;;;;;;;;17.30;39.60;;;;;;5033009;28;19996;-72
2022/03/25 12:45:34;;;;;;;;;;;17.30;38.20;;;;;;5033074;28;20004;-71
2022/03/25 12:48:18;;;;;;;;;;;16.90;37.10;;;;;;5033560;28;19913;-71
2022/03/25 12:50:43;;;;;;;;;;;17.10;40.50;;;;;;5049350;28;19909;-70
2022/03/25 12:53:09;;;;;;;;;;;17.50;40.20;;;;;;5039236;28;20340;-71
2022/03/25 12:55:35;;;;;;;;;;;17.40;40.00;;;;;;5037751;28;19932;-72
2022/03/25 12:58:01;;;;;;;;;;;17.40;38.80;;;;;;5032562;28;20281;-71
2022/03/25 13:00:31;;;;;;;;;;;17.10;38.70;;;;;;5034438;28;19916;-72
2022/03/25 13:02:56;;;;;;;;;;;17.20;41.00;;;;;;5049399;28;20286;-72
2022/03/25 13:05:24;;;;;;;;;;;17.10;40.50;;;;;;5036203;28;19920;-72
2022/03/25 13:07:54;;;;;;;;;;;17.40;40.70;;;;;;5031116;28;19909;-70
2022/03/25 13:10:20;;;;;;;;;;;17.10;38.40;;;;;;5032621;28;19909;-72
2022/03/25 13:12:51;;;;;;;;;;;17.30;39.20;;;;;;5032442;28;20358;-72
2022/03/25 13:15:17;;;;;;;;;;;17.20;39.40;;;;;;5051420;28;19908;-71
2022/03/25 13:17:43;;;;;;;;;;;17.10;39.10;;;;;;5052563;28;19923;-71
2022/03/25 13:20:16;;;;;;;;;;;16.90;38.80;;;;;;5050566;28;19909;-71
2022/03/25 13:22:57;;;;;;;;;;;17.00;40.90;;;;;;5048038;28;19913;-71
2022/03/25 13:25:26;;;;;;;;;;;16.80;42.00;;;;;;5033002;28;19909;-71
2022/03/25 13:27:53;;;;;;;;;;;16.90;40.60;;;;;;5030971;28;20384;-71
2022/03/25 13:30:18;;;;;;;;;;;17.00;44.80;;;;;;5049174;28;20266;-71
2022/03/25 13:32:44;;;;;;;;;;;16.90;40.70;;;;;;5038902;28;19916;-71
2022/03/25 13:35:11;;;;;;;;;;;16.90;40.00;;;;;;5032334;28;20367;-71
2022/03/25 13:37:37;;;;;;;;;;;16.90;40.00;;;;;;5032371;28;19913;-70
2022/03/25 13:40:03;;;;;;;;;;;17.00;40.90;;;;;;5032582;28;20012;-70
2022/03/25 13:42:36;;;;;;;;;;;17.10;41.10;;;;;;5032199;28;19916;-69
2022/03/25 13:45:09;;;;;;;;;;;17.10;40.30;;;;;;5032789;28;19913;-72
2022/03/25 13:47:35;;;;;;;;;;;16.90;40.60;;;;;;5032736;28;19960;-70
2022/03/25 13:50:14;;;;;;;;;;;16.90;41.40;;;;;;5032430;28;19909;-70
2022/03/25 13:52:39;;;;;;;;;;;16.90;41.00;;;;;;5039963;28;19915;-70
2022/03/25 13:55:16;;;;;;;;;;;17.00;40.70;;;;;;5036716;28;19995;-70
2022/03/25 13:57:52;;;;;;;;;;;17.20;41.40;;;;;;5031825;28;19921;-71
2022/03/25 14:00:18;;;;;;;;;;;16.90;42.50;;;;;;5031576;28;19963;-71
2022/03/25 14:02:45;;;;;;;;;;;17.00;43.40;;;;;;5031390;28;19909;-70
2022/03/25 14:05:12;;;;;;;;;;;17.00;43.20;;;;;;5031338;28;19971;-70
2022/03/25 14:07:38;;;;;;;;;;;17.00;42.70;;;;;;5031249;28;19909;-70
2022/03/25 14:10:05;;;;;;;;;;;16.80;42.20;;;;;;5031436;28;20381;-70
2022/03/25 14:12:33;;;;;;;;;;;16.90;41.90;;;;;;5031376;28;19936;-71
2022/03/25 14:15:00;;;;;;;;;;;16.70;40.80;;;;;;5031101;28;19988;-71
2022/03/25 14:17:28;;;;;;;;;;;16.80;42.10;;;;;;5037448;28;19917;-70
2022/03/25 14:20:05;;;;;;;;;;;17.20;42.60;;;;;;5030154;28;19909;-71
2022/03/25 14:22:31;;;;;;;;;;;17.10;40.70;;;;;;5036847;28;19909;-71
2022/03/25 14:24:56;;;;;;;;;;;17.00;40.30;;;;;;5051617;28;19963;-70
2022/03/25 14:27:23;;;;;;;;;;;16.90;40.00;;;;;;5032835;28;19917;-70